createdAt,value
2022-08-25T00:02:00.518Z,1.75
2022-08-25T00:04:30.400Z,2.38
2022-08-25T00:07:02.671Z,2.45
2022-08-25T00:09:34.843Z,2.58
2022-08-25T00:12:03.527Z,1.20
2022-08-25T00:14:33.623Z,1.65
2022-08-25T00:17:01.537Z,3.13
2022-08-25T00:19:32.240Z,1.97
2022-08-25T00:22:01.022Z,1.77
2022-08-25T00:24:28.813Z,2.85
2022-08-25T00:26:57.361Z,2.07
2022-08-25T00:29:28.850Z,2.80
2022-08-25T00:31:59.844Z,3.20
2022-08-25T00:34:29.816Z,2.05
2022-08-25T00:36:57.280Z,3.42
2022-08-25T00:39:25.537Z,2.85
2022-08-25T00:41:54.208Z,2.50
2022-08-25T00:46:53.190Z,4.10
2022-08-25T00:49:37.464Z,2.15
2022-08-25T00:52:04.511Z,3.67
2022-08-25T00:54:38.017Z,3.92
2022-08-25T00:57:06.264Z,1.98
2022-08-25T00:59:33.842Z,3.50
2022-08-25T01:02:01.840Z,2.70
2022-08-25T01:04:29.381Z,3.20
2022-08-25T01:06:57.572Z,3.55
2022-08-25T01:09:25.216Z,4.10
2022-08-25T01:11:53.077Z,3.60
2022-08-25T01:14:21.893Z,4.57
2022-08-25T01:16:51.109Z,2.45
2022-08-25T01:19:21.884Z,3.45
2022-08-25T01:21:50.264Z,3.43
2022-08-25T01:24:26.988Z,3.63
2022-08-25T01:26:54.060Z,3.97
2022-08-25T01:29:21.471Z,4.05
2022-08-25T01:31:49.762Z,3.00
2022-08-25T01:34:17.616Z,4.10
2022-08-25T01:36:45.692Z,2.33
2022-08-25T01:39:13.647Z,4.32
2022-08-25T01:41:41.008Z,4.57
2022-08-25T01:44:14.127Z,3.97
2022-08-25T01:46:44.456Z,4.38
2022-08-25T01:49:12.071Z,2.75
2022-08-25T01:51:44.410Z,3.15
2022-08-25T01:54:11.749Z,3.63
2022-08-25T01:56:39.109Z,3.83
2022-08-25T01:59:06.697Z,3.58
2022-08-25T02:01:34.654Z,3.47
2022-08-25T02:04:02.090Z,4.90
2022-08-25T02:06:33.088Z,3.67
2022-08-25T02:09:05.409Z,2.80
2022-08-25T02:11:34.271Z,3.75
2022-08-25T02:14:01.685Z,3.85
2022-08-25T02:16:33.222Z,4.25
2022-08-25T02:19:00.865Z,3.92
2022-08-25T02:21:28.488Z,5.00
2022-08-25T02:23:57.093Z,2.60
2022-08-25T02:26:24.526Z,3.90
2022-08-25T02:28:52.636Z,3.42
2022-08-25T02:31:21.231Z,3.72
2022-08-25T02:33:48.850Z,3.63
2022-08-25T02:36:16.325Z,4.63
2022-08-25T02:38:43.771Z,2.83
2022-08-25T02:41:15.819Z,3.40
2022-08-25T02:43:45.433Z,2.67
2022-08-25T02:46:13.537Z,4.82
2022-08-25T02:48:41.697Z,3.55
2022-08-25T02:51:09.945Z,3.15
2022-08-25T02:53:40.994Z,3.63
2022-08-25T02:56:10.590Z,3.33
2022-08-25T02:58:38.821Z,5.20
2022-08-25T03:01:07.516Z,6.35
2022-08-25T03:06:08.499Z,3.72
2022-08-25T03:08:36.655Z,3.80
2022-08-25T03:11:05.196Z,4.20
2022-08-25T03:13:32.981Z,4.75
2022-08-25T03:16:00.862Z,4.30
2022-08-25T03:18:30.521Z,4.95
2022-08-25T03:21:01.242Z,4.57
2022-08-25T03:23:28.530Z,3.80
2022-08-25T03:26:15.318Z,4.70
2022-08-25T03:28:42.967Z,3.75
2022-08-25T03:31:10.471Z,5.63
2022-08-25T03:33:38.575Z,2.80
2022-08-25T03:36:06.920Z,5.15
2022-08-25T03:38:34.514Z,3.63
2022-08-25T03:41:02.266Z,3.60
2022-08-25T03:43:29.590Z,3.28
2022-08-25T03:45:57.457Z,4.25
2022-08-25T03:48:25.228Z,3.30
2022-08-25T03:50:54.889Z,4.93
2022-08-25T03:53:22.710Z,4.30
2022-08-25T03:55:50.077Z,4.50
2022-08-25T03:58:18.300Z,4.93
2022-08-25T04:00:45.752Z,2.83
2022-08-25T04:03:13.164Z,3.13
2022-08-25T04:05:40.601Z,3.55
2022-08-25T04:08:08.151Z,4.03
2022-08-25T04:10:35.589Z,4.38
2022-08-25T04:13:02.983Z,4.90
2022-08-25T04:15:30.427Z,2.47
2022-08-25T04:17:59.306Z,3.47
2022-08-25T04:20:26.720Z,3.38
2022-08-25T04:22:55.440Z,4.50
2022-08-25T04:27:49.670Z,2.22
2022-08-25T04:30:17.070Z,2.45
2022-08-25T04:32:44.394Z,4.50
2022-08-25T04:35:11.758Z,3.45
2022-08-25T04:37:39.165Z,4.18
2022-08-25T04:40:07.176Z,2.42
2022-08-25T04:42:35.039Z,3.22
2022-08-25T04:45:06.786Z,4.10
2022-08-25T04:47:37.758Z,4.38
2022-08-25T04:50:05.607Z,4.60
2022-08-25T04:52:33.154Z,4.07
2022-08-25T04:55:00.607Z,4.10
2022-08-25T04:57:28.429Z,4.13
2022-08-25T04:59:55.848Z,3.00
2022-08-25T05:02:25.642Z,3.45
2022-08-25T05:04:53.586Z,3.47
2022-08-25T05:07:21.076Z,5.15
2022-08-25T05:09:48.508Z,3.55
2022-08-25T05:12:15.905Z,5.28
2022-08-25T05:14:43.313Z,3.40
2022-08-25T05:17:10.688Z,3.92
2022-08-25T05:19:38.261Z,4.50
2022-08-25T05:22:07.481Z,3.75
2022-08-25T05:24:34.822Z,4.13
2022-08-25T05:27:04.012Z,5.63
2022-08-25T05:29:31.429Z,3.78
2022-08-25T05:31:58.892Z,3.20
2022-08-25T05:34:26.387Z,4.75
2022-08-25T05:36:54.733Z,5.07
2022-08-25T05:39:22.151Z,5.22
2022-08-25T05:41:49.581Z,3.25
2022-08-25T05:44:20.811Z,6.65
2022-08-25T05:46:48.597Z,4.07
2022-08-25T05:49:16.030Z,5.13
2022-08-25T05:51:43.397Z,6.03
2022-08-25T05:54:10.809Z,4.80
2022-08-25T05:56:38.203Z,3.80
2022-08-25T05:59:09.268Z,4.53
2022-08-25T06:01:55.480Z,4.25
2022-08-25T06:04:22.969Z,5.43
2022-08-25T06:06:53.525Z,5.88
2022-08-25T06:09:21.038Z,4.43
2022-08-25T06:11:51.704Z,3.58
2022-08-25T06:14:22.007Z,4.22
2022-08-25T06:16:51.629Z,4.35
2022-08-25T06:19:19.057Z,5.05
2022-08-25T06:21:46.381Z,3.88
2022-08-25T06:24:15.726Z,3.38
2022-08-25T06:26:44.240Z,4.22
2022-08-25T06:29:12.075Z,4.63
2022-08-25T06:31:39.496Z,3.50
2022-08-25T06:34:07.267Z,3.42
2022-08-25T06:36:34.746Z,4.53
2022-08-25T06:39:02.142Z,3.30
2022-08-25T06:41:36.937Z,4.10
2022-08-25T06:44:05.640Z,5.63
2022-08-25T06:46:36.071Z,4.55
2022-08-25T06:49:05.012Z,5.65
2022-08-25T06:51:32.478Z,4.13
2022-08-25T06:54:01.095Z,4.28
2022-08-25T06:58:55.690Z,4.43
2022-08-25T07:01:27.160Z,4.18
2022-08-25T07:03:59.772Z,4.75
2022-08-25T07:06:28.568Z,4.45
2022-08-25T07:11:22.975Z,4.07
2022-08-25T07:13:50.710Z,3.80
2022-08-25T07:16:19.384Z,4.15
2022-08-25T07:18:47.820Z,3.70
2022-08-25T07:21:15.677Z,4.75
2022-08-25T07:23:43.449Z,2.63
2022-08-25T07:26:36.799Z,4.33
2022-08-25T07:29:06.588Z,3.72
2022-08-25T07:31:35.040Z,4.30
2022-08-25T07:34:21.021Z,3.47
2022-08-25T07:36:48.452Z,4.78
2022-08-25T07:39:16.759Z,3.53
2022-08-25T07:41:44.307Z,5.72
2022-08-25T07:44:13.838Z,3.67
2022-08-25T07:46:42.591Z,3.03
2022-08-25T07:52:04.285Z,3.90
2022-08-25T07:54:33.972Z,2.20
2022-08-25T07:57:02.137Z,5.63
2022-08-25T07:59:29.378Z,3.00
2022-08-25T08:01:56.732Z,3.03
2022-08-25T08:04:24.067Z,3.88
2022-08-25T08:06:51.408Z,3.50
2022-08-25T08:09:18.868Z,3.08
2022-08-25T08:11:54.039Z,2.90
2022-08-25T08:14:21.930Z,2.15
2022-08-25T08:16:49.729Z,3.33
2022-08-25T08:19:17.530Z,3.60
2022-08-25T08:21:52.488Z,2.30
2022-08-25T08:24:40.796Z,5.28
2022-08-25T08:27:10.762Z,2.90
2022-08-25T08:29:38.769Z,3.60
2022-08-25T08:32:07.736Z,4.07
2022-08-25T08:34:35.170Z,3.83
2022-08-25T08:37:03.279Z,5.47
2022-08-25T08:39:30.729Z,4.70
2022-08-25T08:42:18.288Z,3.70
2022-08-25T08:44:45.594Z,2.83
2022-08-25T08:47:12.953Z,3.08
2022-08-25T08:50:06.401Z,4.30
2022-08-25T08:52:41.745Z,4.13
2022-08-25T08:55:32.929Z,2.03
2022-08-25T08:58:04.754Z,3.80
2022-08-25T09:00:34.042Z,3.60
2022-08-25T09:03:06.371Z,2.72
2022-08-25T09:05:42.774Z,2.67
2022-08-25T09:11:10.275Z,3.90
2022-08-25T09:13:52.928Z,2.60
2022-08-25T09:16:55.609Z,2.38
2022-08-25T09:19:59.403Z,3.10
2022-08-25T09:22:47.900Z,3.03
2022-08-25T09:28:29.048Z,2.75
2022-08-25T09:31:02.704Z,3.13
2022-08-25T09:33:35.610Z,3.03
2022-08-25T09:36:06.371Z,2.28
2022-08-25T09:38:36.440Z,3.60
2022-08-25T09:41:04.144Z,3.08
2022-08-25T09:43:35.666Z,1.58
2022-08-25T09:46:06.091Z,3.00
2022-08-25T09:48:55.889Z,2.47
2022-08-25T09:51:38.153Z,3.00
2022-08-25T09:54:13.651Z,2.63
2022-08-25T09:56:54.157Z,3.58
2022-08-25T09:59:35.205Z,3.08
2022-08-25T10:02:25.341Z,2.72
2022-08-25T10:04:53.347Z,2.50
2022-08-25T10:07:25.922Z,3.83
2022-08-25T10:09:56.881Z,2.28
2022-08-25T10:12:29.789Z,2.22
2022-08-25T10:14:57.158Z,2.20
2022-08-25T10:17:27.394Z,2.75
2022-08-25T10:20:15.479Z,2.55
2022-08-25T10:22:44.054Z,2.03
2022-08-25T10:31:23.893Z,2.38
2022-08-25T10:34:02.749Z,2.28
2022-08-25T10:36:33.938Z,2.35
2022-08-25T10:39:03.074Z,2.78
2022-08-25T10:41:30.372Z,1.70
2022-08-25T10:44:03.779Z,1.88
2022-08-25T10:46:54.268Z,2.30
2022-08-25T10:49:35.138Z,2.13
2022-08-25T10:52:04.038Z,2.42
2022-08-25T10:54:34.525Z,2.38
2022-08-25T10:57:08.106Z,2.03
2022-08-25T10:59:35.664Z,2.35
2022-08-25T11:05:03.572Z,4.25
2022-08-25T11:07:31.421Z,2.40
2022-08-25T11:10:17.383Z,2.13
2022-08-25T11:12:46.626Z,2.42
2022-08-25T11:15:25.389Z,1.73
2022-08-25T11:17:53.071Z,1.63
2022-08-25T11:20:27.106Z,1.90
2022-08-25T11:23:05.266Z,1.48
2022-08-25T11:25:43.742Z,2.90
2022-08-25T11:28:20.655Z,3.10
2022-08-25T11:30:51.261Z,2.03
2022-08-25T11:33:19.539Z,1.38
2022-08-25T11:36:05.952Z,1.83
2022-08-25T11:38:40.554Z,1.63
2022-08-25T11:41:27.289Z,2.13
2022-08-25T11:44:06.946Z,1.52
2022-08-25T11:46:58.213Z,1.45
2022-08-25T11:49:44.283Z,1.50
2022-08-25T11:52:34.726Z,2.22
2022-08-25T11:55:23.409Z,1.63
2022-08-25T11:57:53.529Z,1.67
2022-08-25T12:00:30.173Z,1.33
2022-08-25T12:03:01.408Z,1.80
2022-08-25T12:05:28.732Z,0.95
2022-08-25T12:08:25.844Z,1.42
2022-08-25T12:10:53.598Z,1.10
2022-08-25T12:13:50.756Z,1.90
2022-08-25T12:16:39.017Z,1.60
2022-08-25T12:19:24.351Z,1.70
2022-08-25T12:21:51.864Z,1.70
2022-08-25T12:24:22.105Z,1.70
2022-08-25T12:26:49.474Z,1.85
2022-08-25T12:29:34.834Z,1.50
2022-08-25T12:32:33.864Z,1.63
2022-08-25T12:35:37.832Z,1.48
2022-08-25T12:38:06.721Z,1.27
2022-08-25T12:40:34.658Z,1.30
2022-08-25T12:43:28.133Z,1.40
2022-08-25T12:46:26.543Z,1.27
2022-08-25T12:49:02.762Z,1.10
2022-08-25T12:51:36.312Z,1.55
2022-08-25T12:54:32.614Z,1.55
2022-08-25T12:57:40.492Z,1.42
2022-08-25T13:02:54.080Z,0.77
2022-08-25T13:05:46.050Z,1.00
2022-08-25T13:08:19.487Z,1.45
2022-08-25T13:10:56.075Z,1.85
2022-08-25T13:13:56.348Z,2.13
2022-08-25T13:16:29.322Z,1.50
2022-08-25T13:18:59.634Z,1.90
2022-08-25T13:21:43.497Z,1.10
2022-08-25T13:24:29.802Z,1.63
2022-08-25T13:27:09.678Z,1.13
2022-08-25T13:29:50.322Z,1.33
2022-08-25T13:32:25.754Z,1.15
2022-08-25T13:35:11.714Z,1.67
2022-08-25T13:37:41.504Z,1.85
2022-08-25T13:40:17.723Z,1.33
2022-08-25T13:42:54.455Z,1.50
2022-08-25T13:45:28.915Z,1.20
2022-08-25T13:47:59.417Z,1.70
2022-08-25T13:50:27.096Z,2.63
2022-08-25T13:53:11.617Z,1.45
2022-08-25T13:55:52.854Z,1.40
2022-08-25T13:58:39.171Z,1.30
2022-08-25T14:01:47.756Z,1.48
2022-08-25T14:04:32.654Z,1.77
2022-08-25T14:09:52.226Z,2.03
2022-08-25T14:12:29.281Z,0.90
2022-08-25T14:15:01.377Z,2.17
2022-08-25T14:17:39.453Z,1.17
2022-08-25T14:20:27.345Z,1.80
2022-08-25T14:22:58.053Z,1.77
2022-08-25T14:25:26.927Z,1.40
2022-08-25T14:28:08.324Z,1.35
2022-08-25T14:30:46.209Z,1.58
2022-08-25T14:33:14.625Z,1.75
2022-08-25T14:35:44.171Z,1.60
2022-08-25T14:38:12.462Z,1.10
2022-08-25T14:40:40.010Z,1.10
2022-08-25T14:43:09.551Z,1.23
2022-08-25T14:45:40.230Z,2.75
2022-08-25T14:48:18.099Z,1.33
2022-08-25T14:50:45.616Z,1.20
2022-08-25T14:53:13.055Z,1.25
2022-08-25T14:55:40.472Z,1.52
2022-08-25T14:58:08.592Z,1.85
2022-08-25T15:00:44.743Z,1.45
2022-08-25T15:03:16.279Z,1.05
2022-08-25T15:05:45.798Z,1.30
2022-08-25T15:08:33.942Z,1.42
2022-08-25T15:11:01.240Z,1.45
2022-08-25T15:13:28.620Z,1.98
2022-08-25T15:15:58.063Z,1.55
2022-08-25T15:18:27.360Z,1.95
2022-08-25T15:20:54.719Z,2.28
2022-08-25T15:23:22.132Z,2.03
2022-08-25T15:25:52.876Z,1.15
2022-08-25T15:28:22.338Z,1.15
2022-08-25T15:30:50.197Z,2.15
2022-08-25T15:33:18.314Z,1.27
2022-08-25T15:35:46.392Z,1.13
2022-08-25T15:38:13.878Z,1.77
2022-08-25T15:40:41.637Z,1.38
2022-08-25T15:43:08.963Z,1.40
2022-08-25T15:45:36.579Z,0.95
2022-08-25T15:48:04.493Z,1.00
2022-08-25T15:50:34.432Z,1.30
2022-08-25T15:53:01.849Z,2.13
2022-08-25T15:55:29.279Z,1.50
2022-08-25T15:57:56.575Z,1.20
2022-08-25T16:00:24.367Z,1.48
2022-08-25T16:02:52.552Z,0.98
2022-08-25T16:05:25.813Z,1.42
2022-08-25T16:07:53.424Z,1.10
2022-08-25T16:10:21.214Z,1.02
2022-08-25T16:15:16.260Z,1.17
2022-08-25T16:17:45.968Z,1.75
2022-08-25T16:20:17.265Z,1.92
2022-08-25T16:22:45.487Z,1.67
2022-08-25T16:25:14.553Z,2.20
2022-08-25T16:27:41.879Z,1.15
2022-08-25T16:30:12.733Z,1.30
2022-08-25T16:32:43.738Z,1.77
2022-08-25T16:35:11.728Z,1.13
2022-08-25T16:37:39.068Z,1.33
2022-08-25T16:40:08.608Z,0.88
2022-08-25T16:42:35.967Z,2.28
2022-08-25T16:45:05.158Z,1.55
2022-08-25T16:47:37.167Z,1.92
2022-08-25T16:50:06.538Z,2.03
2022-08-25T16:55:19.368Z,2.10
2022-08-25T16:57:49.568Z,1.98
2022-08-25T17:00:25.963Z,1.05
2022-08-25T17:02:58.487Z,2.05
2022-08-25T17:05:27.357Z,0.93
2022-08-25T17:08:13.455Z,2.42
2022-08-25T17:10:42.675Z,2.08
2022-08-25T17:13:10.571Z,0.85
2022-08-25T17:15:47.008Z,1.35
2022-08-25T17:18:14.425Z,1.85
2022-08-25T17:20:43.378Z,2.58
2022-08-25T17:23:12.699Z,1.73
2022-08-25T17:25:42.852Z,1.98
2022-08-25T17:28:12.088Z,1.50
2022-08-25T17:30:40.471Z,1.98
2022-08-25T17:33:07.476Z,1.77
2022-08-25T17:35:45.234Z,1.53
2022-08-25T17:38:14.525Z,1.27
2022-08-25T17:40:42.416Z,2.75
2022-08-25T17:43:11.108Z,1.58
2022-08-25T17:48:07.218Z,1.52
2022-08-25T17:50:36.132Z,1.50
2022-08-25T17:53:03.847Z,1.25
2022-08-25T17:55:31.847Z,1.52
2022-08-25T17:57:59.536Z,1.35
2022-08-25T18:00:26.526Z,2.00
2022-08-25T18:02:53.906Z,2.38
2022-08-25T18:05:21.505Z,1.40
2022-08-25T18:07:48.404Z,2.17
2022-08-25T18:10:16.778Z,1.88
2022-08-25T18:12:44.353Z,2.33
2022-08-25T18:15:14.207Z,2.22
2022-08-25T18:17:42.020Z,1.15
2022-08-25T18:20:13.904Z,1.55
2022-08-25T18:25:12.722Z,1.20
2022-08-25T18:27:40.200Z,1.83
2022-08-25T18:30:08.431Z,1.67
2022-08-25T18:32:36.343Z,1.80
2022-08-25T18:35:03.910Z,2.53
2022-08-25T18:37:50.727Z,1.52
2022-08-25T18:40:25.870Z,1.65
2022-08-25T18:42:54.514Z,1.17
2022-08-25T18:45:24.106Z,1.92
2022-08-25T18:47:58.527Z,1.60
2022-08-25T18:50:31.177Z,2.30
2022-08-25T18:52:58.728Z,1.65
2022-08-25T18:55:26.219Z,1.48
2022-08-25T18:57:53.382Z,1.23
2022-08-25T19:00:22.208Z,1.10
2022-08-25T19:02:51.022Z,1.13
2022-08-25T19:05:22.902Z,1.30
2022-08-25T19:07:52.100Z,1.63
2022-08-25T19:10:20.395Z,2.08
2022-08-25T19:12:52.278Z,2.00
2022-08-25T19:15:19.804Z,1.00
2022-08-25T19:17:53.265Z,1.45
2022-08-25T19:20:21.921Z,3.33
2022-08-25T19:22:49.539Z,2.08
2022-08-25T19:25:18.110Z,2.47
2022-08-25T19:27:46.256Z,1.20
2022-08-25T19:30:16.026Z,1.45
2022-08-25T19:32:44.904Z,1.48
2022-08-25T19:35:36.475Z,1.33
2022-08-25T19:38:07.119Z,1.45
2022-08-25T19:40:48.208Z,2.00
2022-08-25T19:43:15.559Z,1.77
2022-08-25T19:45:45.054Z,1.42
2022-08-25T19:48:14.074Z,1.88
2022-08-25T19:50:41.498Z,2.78
2022-08-25T19:53:09.070Z,2.20
2022-08-25T19:55:36.581Z,2.03
2022-08-25T19:58:04.524Z,1.47
2022-08-25T20:00:35.621Z,1.90
2022-08-25T20:03:05.132Z,1.20
2022-08-25T20:05:33.415Z,1.67
2022-08-25T20:08:01.503Z,2.77
2022-08-25T20:10:30.001Z,1.90
2022-08-25T20:12:57.711Z,2.17
2022-08-25T20:15:26.722Z,1.95
2022-08-25T20:17:56.471Z,1.60
2022-08-25T20:20:24.357Z,1.17
2022-08-25T20:22:52.131Z,1.70
2022-08-25T20:25:24.475Z,2.70
2022-08-25T20:27:53.805Z,1.95
2022-08-25T20:30:28.086Z,1.13
2022-08-25T20:32:56.981Z,1.88
2022-08-25T20:37:55.067Z,1.95
2022-08-25T20:40:25.556Z,1.45
2022-08-25T20:42:53.540Z,1.77
2022-08-25T20:45:24.739Z,2.72
2022-08-25T20:47:52.088Z,1.65
2022-08-25T20:50:19.861Z,1.30
2022-08-25T20:52:48.492Z,2.05
2022-08-25T20:57:46.510Z,1.77
2022-08-25T21:00:14.106Z,2.50
2022-08-25T21:02:42.883Z,1.73
2022-08-25T21:05:10.518Z,1.90
2022-08-25T21:07:38.066Z,1.50
2022-08-25T21:10:10.750Z,1.63
2022-08-25T21:12:41.657Z,2.08
2022-08-25T21:15:10.545Z,1.58
2022-08-25T21:17:38.328Z,2.55
2022-08-25T21:20:07.064Z,1.88
2022-08-25T21:25:02.291Z,1.60
2022-08-25T21:27:30.576Z,1.70
2022-08-25T21:29:58.633Z,1.98
2022-08-25T21:32:26.045Z,1.45
2022-08-25T21:34:57.214Z,1.92
2022-08-25T21:37:26.753Z,1.75
2022-08-25T21:39:54.695Z,1.27
2022-08-25T21:42:23.295Z,2.37
2022-08-25T21:44:51.330Z,1.73
2022-08-25T21:47:21.017Z,1.27
2022-08-25T21:49:49.368Z,1.60
2022-08-25T21:52:16.725Z,1.13
2022-08-25T21:54:45.198Z,1.80
2022-08-25T21:57:12.899Z,2.13
2022-08-25T21:59:41.301Z,1.13
2022-08-25T22:02:11.795Z,1.67
2022-08-25T22:04:40.124Z,1.90
2022-08-25T22:07:08.539Z,1.15
2022-08-25T22:09:36.543Z,1.42
2022-08-25T22:12:04.304Z,1.52
2022-08-25T22:14:32.495Z,1.80
2022-08-25T22:17:00.144Z,1.27
2022-08-25T22:19:27.852Z,1.63
2022-08-25T22:21:55.841Z,1.67
2022-08-25T22:24:23.222Z,1.33
2022-08-25T22:26:58.571Z,1.40
2022-08-25T22:29:26.275Z,1.58
2022-08-25T22:31:57.819Z,1.33
2022-08-25T22:34:30.693Z,1.77
2022-08-25T22:36:59.385Z,1.67
2022-08-25T22:39:27.573Z,1.43
2022-08-25T22:41:55.493Z,1.38
2022-08-25T22:44:23.354Z,2.03
2022-08-25T22:46:51.001Z,1.25
2022-08-25T22:49:19.123Z,1.95
2022-08-25T22:51:48.356Z,2.47
2022-08-25T22:54:16.578Z,1.17
2022-08-25T22:56:44.161Z,1.67
2022-08-25T22:59:13.531Z,2.65
2022-08-25T23:01:41.497Z,2.17
2022-08-25T23:04:09.520Z,1.70
2022-08-25T23:06:38.286Z,1.83
2022-08-25T23:09:06.699Z,2.40
2022-08-25T23:11:35.745Z,1.15
2022-08-25T23:14:08.428Z,2.25
2022-08-25T23:16:36.018Z,1.63
2022-08-25T23:19:03.616Z,1.27
2022-08-25T23:21:52.486Z,2.38
2022-08-25T23:24:29.098Z,2.08
2022-08-25T23:26:58.282Z,1.25
2022-08-25T23:29:25.662Z,1.40
2022-08-25T23:31:53.659Z,2.10
2022-08-25T23:34:22.184Z,1.75
2022-08-25T23:36:49.644Z,1.83
2022-08-25T23:39:17.061Z,1.33
2022-08-25T23:41:44.649Z,0.90
2022-08-25T23:44:17.613Z,1.52
2022-08-25T23:46:47.191Z,1.27
2022-08-25T23:51:46.561Z,1.92
2022-08-25T23:54:15.845Z,1.70
2022-08-25T23:56:44.797Z,2.17
2022-08-25T23:59:19.933Z,2.22
